ROMMA est une association bénévole à but non lucratif. Votre soutien est indispensable : ADHERER à ROMMA ou FAIRE un DON

La Javie - (04, Alpes de Haute Provence)

Vallée de la Bléone (820 m)   Longitude: 06° 21' E   Latitude: 44° 10' N Station partenaire n°129
 

Détail journalier du     <<     >>

Température Precipitation Humidité Pression Vent Dir Rafale Dir. rafale Ensol.
Heure (°C) (mm) (%) (hPa) (km/h) (km/h) (min)
01:00 13.3095101400---0
02:00 14.60841013011---0
03:00 15.008210131---10---0
04:00 12.2092101400---0
05:00 11.4095101500---0
06:00 13.608410141---10---0
07:00 11.908910151---8---0
08:00 11.8093101500---0
09:00 16.6068101408---0
10:00 19.4071101306---0
11:00 20.406210131---10---0
12:00 21.406010132---11---0
13:00 22.606110133---16---0
14:00 23.406110123---18---0
15:00 24.106010117---21---0
16:00 24.304910125---19---0
17:00 20.40.67210142---16---0
18:00 15.20.890101400---0
19:00 16.30621014014---0
20:00 16.80731015010---0
21:00 17.2056101405---0
22:00 17.70541014010---0
23:00 16.906510153---14---0
minuit 13.9078101600---0

Graphique du 03-07-2020

 

Serveur OMMA